aviador You're here:

KCOU Decoded Metar

COLUMBIA in MO, USA
Report Time2017-05-29 02:54:00
UTC Time2017-05-29 03:57:52
Flight Rules vfr VFR
Wind260° at 05 kt
W.Decomp.*RWY 31: 3.0 kt HW 4 kt LCW
RWY 20: 2.7 kt HW 4.2 kt RCW
W.Rank260° ranks 26
Current wind is below 260° avg. (8.2)
Visibility9999 m
Phenomena:N/A
Clouds:N/A
Expected CloudBase > 3,200 ft AGL from Temp-Dew spread
CeilingNone
Temp20°C (ISA +7)
Dew Point12°C (60% RH)
AAT18.8°C
QNH1012 hPa
Density Alt1,903 ft
Elevation889 ft
Report Wrong Elevation
Raw Report
KCOU 290254Z AUTO 26005KT 10SM CLR 20/12 A2989 RMK AO2 SLP116
T02000122 55000=

Extra information for KCOU:More info

Metar Taf Metar & Taf Last 4 Metars F.Rules Stats Wind Profile Meteogram Temp Stats Airport Information Weather charts Add Link Nearby VenuesMetar ALERT Operation Metar Decoded Social comments

AIRNAV info for KCOU